This is the latest recevied weather packets stored in our database for station/object DG2MCM-11. If no packets are shown the sender has not sent any weather packets the latest 10 day(s).
| Time | Temp. | Humidity | Pressure | Rain* | Wind** | Luminosity | Snow |
|---|---|---|---|---|---|---|---|
| 1777540722 | 18.89° C | 30% | 1022.6 hPa | 0 mm | - | - | - |
| 1777540120 | 19.44° C | 27% | 1022.6 hPa | 0 mm | - | - | - |
| 1777538316 | 20.56° C | 28% | 1022.3 hPa | 0 mm | - | - | - |
| 1777537714 | 17.78° C | 29% | 1022.9 hPa | 0 mm | - | - | - |
| 1777534707 | 18.33° C | 27% | 1022.6 hPa | 0 mm | - | - | - |
| 1777534105 | 17.22° C | 28% | 1023 hPa | 0 mm | - | - | - |
| 1777533503 | 16.67° C | 28% | 1023 hPa | 0 mm | - | - | - |
| 1777532902 | 15° C | 30% | 1023.5 hPa | 0 mm | - | - | - |
| 1777532300 | 14.44° C | 30% | 1023.7 hPa | 0 mm | - | - | - |
| 1777531097 | 12.78° C | 32% | 1024.1 hPa | 0 mm | - | - | - |
| 1777529894 | 7.22° C | 44% | 1025.8 hPa | 0 mm | - | - | - |
| 1777528682 | 5° C | 51% | 1026.4 hPa | 0 mm | - | - | - |
| 1777527479 | 3.33° C | 55% | 1026.9 hPa | 0 mm | - | - | - |
| 1777526276 | 2.78° C | 59% | 1027 hPa | 0 mm | - | - | - |
| 1777525674 | 2.78° C | 62% | 1027 hPa | 0 mm | - | - | - |
| 1777525073 | 2.78° C | 62% | 1027 hPa | 0 mm | - | - | - |
| 1777524471 | 2.22° C | 64% | 1027.1 hPa | 0 mm | - | - | - |
| 1777521524 | 2.78° C | 61% | 1026.5 hPa | 0 mm | - | - | - |
| 1777520923 | 2.78° C | 62% | 1026.5 hPa | 0 mm | - | - | - |
| 1777520321 | 2.78° C | 63% | 1026.6 hPa | 0 mm | - | - | - |
| 1777519719 | 2.22° C | 64% | 1026.6 hPa | 0 mm | - | - | - |
| 1777519118 | 2.78° C | 62% | 1026.5 hPa | 0 mm | - | - | - |
| 1777516703 | 3.33° C | 60% | 1026.4 hPa | 0 mm | - | - | - |
| 1777515500 | 3.89° C | 60% | 1026.3 hPa | 0 mm | - | - | - |
| 1777514898 | 3.89° C | 60% | 1026.2 hPa | 0 mm | - | - | - |
* Rain latest hour (hover to see other rain measurements)
** Current wind speed in m/s (hover to see current wind gust speed)